Time;durP1;ratioP1;P1;durP2;ratioP2;P2;SDS_P1;SDS_P2;PMS_P1;PMS_P2;Temp;Humidity;BMP_temperature;BMP_pressure;BME280_temperature;BME280_humidity;BME280_pressure;Samples;Min_cycle;Max_cycle;Signal;HPM_P1;HPM_P2
2022/05/19 00:00:29;;;;;;;11.57;4.40;;;;;;;14.17;48.75;101642.69;5015181;28;20050;-70
2022/05/19 00:02:56;;;;;;;10.45;4.95;;;;;;;14.29;48.57;101636.00;5013802;28;20056;-70
2022/05/19 00:05:22;;;;;;;11.15;5.03;;;;;;;14.44;48.33;101638.91;5013951;28;20092;-69
2022/05/19 00:07:49;;;;;;;11.77;4.35;;;;;;;14.34;48.62;101642.75;5014780;28;20058;-69
2022/05/19 00:10:16;;;;;;;10.80;5.00;;;;;;;14.28;48.74;101641.53;5014475;28;20540;-69
2022/05/19 00:12:42;;;;;;;11.90;5.05;;;;;;;14.26;48.82;101632.78;5014569;28;20378;-69
2022/05/19 00:15:12;;;;;;;13.15;4.45;;;;;;;14.19;49.12;101629.03;5014207;28;20534;-69
2022/05/19 00:17:40;;;;;;;12.85;4.95;;;;;;;14.26;49.08;101627.38;5014433;28;20046;-69
2022/05/19 00:20:07;;;;;;;9.65;4.45;;;;;;;14.33;49.02;101633.81;5013434;28;20085;-68
2022/05/19 00:22:35;;;;;;;13.38;4.10;;;;;;;14.29;49.35;101636.00;5013986;28;20125;-69
2022/05/19 00:25:01;;;;;;;10.75;4.43;;;;;;;14.39;49.15;101635.00;5013383;28;20161;-68
2022/05/19 00:27:28;;;;;;;9.43;5.28;;;;;;;14.29;49.24;101630.59;5013350;28;20058;-69
2022/05/19 00:29:54;;;;;;;12.10;5.07;;;;;;;14.36;49.32;101629.91;5013954;28;20084;-69
2022/05/19 00:32:20;;;;;;;10.13;5.00;;;;;;;14.23;49.54;101625.84;5014587;28;20137;-69
2022/05/19 00:34:47;;;;;;;7.43;5.50;;;;;;;14.24;49.44;101622.13;5014221;28;20077;-69
2022/05/19 00:37:13;;;;;;;11.65;4.85;;;;;;;14.20;50.09;101620.75;4996162;28;20141;-69
2022/05/19 00:39:40;;;;;;;11.52;4.60;;;;;;;14.18;49.87;101614.66;5014709;28;20050;-68
2022/05/19 00:44:59;;;;;;;9.85;4.03;;;;;;;14.13;49.85;101627.81;5015036;28;20062;-69
2022/05/19 00:47:33;;;;;;;9.57;5.03;;;;;;;14.08;49.91;101621.22;5014460;28;20141;-69
2022/05/19 00:50:01;;;;;;;8.45;4.80;;;;;;;14.07;50.12;101620.38;5014693;28;20054;-69
2022/05/19 00:52:35;;;;;;;11.45;4.78;;;;;;;14.05;50.22;101631.34;5017256;28;20096;-69
2022/05/19 00:55:24;;;;;;;9.50;5.15;;;;;;;14.01;50.40;101627.28;5017257;28;20089;-69
2022/05/19 00:58:04;;;;;;;14.07;5.75;;;;;;;14.02;50.23;101628.13;5017772;28;20046;-69
2022/05/19 01:00:31;;;;;;;11.48;4.97;;;;;;;14.02;50.30;101633.50;5017112;28;20115;-69
2022/05/19 01:03:00;;;;;;;8.43;5.07;;;;;;;13.99;50.61;101628.44;5017930;28;20050;-69
2022/05/19 01:09:15;;;;;;;10.93;5.57;;;;;;;13.86;50.57;101630.72;5017090;28;20064;-69
2022/05/19 01:11:44;;;;;;;10.07;5.50;;;;;;;13.87;50.73;101625.13;5017887;28;20081;-69
2022/05/19 01:14:11;;;;;;;13.95;4.95;;;;;;;13.87;51.11;101618.91;5017704;28;20484;-69
2022/05/19 01:16:38;;;;;;;7.07;4.63;;;;;;;13.80;51.19;101619.56;5017531;28;20084;-69
2022/05/19 01:19:17;;;;;;;9.52;4.78;;;;;;;13.76;51.38;101617.31;5017796;28;20180;-69
2022/05/19 01:21:44;;;;;;;14.00;5.15;;;;;;;13.74;51.52;101611.22;5017773;28;20108;-69
2022/05/19 01:24:28;;;;;;;10.45;4.88;;;;;;;13.73;51.42;101618.44;5017729;28;20129;-69
2022/05/19 01:26:56;;;;;;;11.50;5.25;;;;;;;13.66;51.58;101612.00;5017241;28;20506;-69
2022/05/19 01:29:26;;;;;;;12.48;5.30;;;;;;;13.61;51.66;101613.50;5017809;28;20076;-69
2022/05/19 01:32:00;;;;;;;11.88;5.68;;;;;;;13.56;51.76;101609.44;5017264;28;20103;-69
2022/05/19 01:34:32;;;;;;;10.55;5.38;;;;;;;13.58;51.82;101603.88;5017844;28;20062;-68
2022/05/19 01:36:59;;;;;;;9.73;5.10;;;;;;;13.53;52.15;101611.59;5017457;28;20078;-68
2022/05/19 01:39:29;;;;;;;11.85;5.47;;;;;;;13.45;52.21;101611.53;5017474;28;20089;-68
2022/05/19 01:42:14;;;;;;;7.63;5.25;;;;;;;13.52;51.94;101604.50;5016746;28;20509;-69
2022/05/19 01:44:49;;;;;;;11.07;5.45;;;;;;;13.51;51.91;101602.81;5017623;28;20108;-69
2022/05/19 01:47:30;;;;;;;12.40;5.05;;;;;;;13.46;52.21;101605.16;5017094;28;20077;-69
2022/05/19 01:50:21;;;;;;;7.40;4.63;;;;;;;13.44;52.47;101610.69;5016864;28;20091;-69
2022/05/19 01:52:58;;;;;;;10.13;3.63;;;;;;;13.39;52.52;101604.94;5016939;28;20133;-69
2022/05/19 01:55:42;;;;;;;9.18;4.97;;;;;;;13.35;52.59;101604.41;5016569;28;20141;-69
2022/05/19 01:58:16;;;;;;;11.57;5.13;;;;;;;13.32;52.63;101598.50;5017607;28;20077;-68
2022/05/19 02:00:43;;;;;;;12.93;4.60;;;;;;;13.33;52.83;101606.41;5016981;28;20473;-69
2022/05/19 02:03:51;;;;;;;12.30;4.70;;;;;;;13.18;52.82;101599.91;5015947;28;20069;-69
2022/05/19 02:06:33;;;;;;;14.50;5.68;;;;;;;13.15;52.83;101600.19;5016126;28;20407;-68
2022/05/19 02:09:19;;;;;;;10.95;5.22;;;;;;;13.15;52.82;101600.19;4998562;28;20081;-68
2022/05/19 02:11:54;;;;;;;10.70;4.85;;;;;;;13.21;52.92;101601.41;5015907;28;20099;-69
2022/05/19 02:14:40;;;;;;;11.73;4.97;;;;;;;13.15;53.02;101607.44;5015470;28;20133;-69
2022/05/19 02:17:10;;;;;;;8.55;4.50;;;;;;;13.14;52.86;101603.03;5015554;28;20132;-69
2022/05/19 02:19:40;;;;;;;10.68;4.88;;;;;;;13.07;53.12;101602.81;5015690;28;20497;-69
2022/05/19 02:22:10;;;;;;;6.63;4.32;;;;;;;13.09;53.14;101609.75;5015367;28;20140;-68
2022/05/19 02:24:40;;;;;;;12.48;4.93;;;;;;;13.11;52.93;101606.88;4997754;28;20088;-69
2022/05/19 02:27:26;;;;;;;8.27;4.63;;;;;;;13.00;53.02;101604.44;5014925;28;20060;-69
2022/05/19 02:29:54;;;;;;;11.50;4.38;;;;;;;12.99;52.81;101606.28;5015457;28;20054;-69
2022/05/19 02:32:20;;;;;;;7.53;4.32;;;;;;;12.92;53.04;101604.38;5015554;28;20457;-69
2022/05/19 02:34:47;;;;;;;17.65;5.07;;;;;;;12.98;53.00;101601.06;4997824;28;20049;-69
2022/05/19 02:37:13;;;;;;;8.95;4.47;;;;;;;12.93;52.82;101601.50;5015530;28;20132;-69
2022/05/19 02:39:39;;;;;;;9.75;4.70;;;;;;;12.94;52.75;101595.13;5015527;28;20138;-69
2022/05/19 02:42:06;;;;;;;8.35;4.63;;;;;;;12.81;53.12;101598.22;5015341;28;20461;-70
2022/05/19 02:44:33;;;;;;;13.77;5.50;;;;;;;12.80;53.04;101596.53;5015568;28;20132;-68
2022/05/19 02:46:59;;;;;;;10.68;4.68;;;;;;;12.70;53.29;101601.09;5015394;28;20462;-69
2022/05/19 02:49:25;;;;;;;9.02;4.53;;;;;;;12.70;53.26;101598.41;5015022;28;20053;-69
2022/05/19 02:51:52;;;;;;;11.20;4.50;;;;;;;12.68;53.04;101597.69;5015202;28;20128;-69
2022/05/19 02:54:21;;;;;;;8.95;4.22;;;;;;;12.44;53.80;101600.13;5015353;28;20137;-69
2022/05/19 02:56:48;;;;;;;15.13;5.57;;;;;;;12.53;53.42;101607.31;5015108;28;20148;-70
2022/05/19 02:59:15;;;;;;;11.00;4.65;;;;;;;12.51;53.60;101602.06;5015281;28;20128;-69
2022/05/19 03:01:42;;;;;;;10.90;4.68;;;;;;;12.40;53.73;101596.91;5015546;28;20085;-69
2022/05/19 03:04:08;;;;;;;8.45;4.70;;;;;;;12.27;54.07;101599.94;5015028;28;20511;-69
2022/05/19 03:06:35;;;;;;;8.45;4.55;;;;;;;12.32;54.19;101596.81;5014483;28;20050;-69
2022/05/19 03:09:01;;;;;;;12.63;4.97;;;;;;;12.29;54.09;101599.81;5015770;28;20115;-69
2022/05/19 03:11:28;;;;;;;8.27;4.95;;;;;;;12.28;53.96;101595.41;5016499;28;20053;-69
2022/05/19 03:13:54;;;;;;;12.77;4.70;;;;;;;12.31;54.19;101595.09;5016550;28;20087;-69
2022/05/19 03:16:21;;;;;;;16.13;4.93;;;;;;;12.06;54.47;101602.88;5016898;28;20141;-69
2022/05/19 03:18:47;;;;;;;11.07;4.70;;;;;;;12.21;54.26;101605.06;5016748;28;20100;-69
2022/05/19 03:21:14;;;;;;;9.85;4.57;;;;;;;12.24;54.17;101594.84;5016754;28;20140;-69
2022/05/19 03:23:40;;;;;;;14.95;5.78;;;;;;;12.35;53.90;101605.44;5015902;28;20081;-69
2022/05/19 03:26:07;;;;;;;12.50;5.30;;;;;;;12.27;53.95;101607.16;5015851;28;20092;-69
2022/05/19 03:28:34;;;;;;;10.77;5.53;;;;;;;12.30;53.89;101606.88;5016104;28;20054;-69
2022/05/19 03:31:01;;;;;;;13.70;4.75;;;;;;;12.43;53.88;101601.13;5016248;28;20445;-69
2022/05/19 03:33:27;;;;;;;11.45;4.28;;;;;;;12.48;53.68;101605.06;5015998;28;20105;-69
2022/05/19 03:36:02;;;;;;;10.23;4.90;;;;;;;12.51;53.46;101603.91;5017054;28;20085;-69
2022/05/19 03:38:29;;;;;;;14.90;4.68;;;;;;;12.53;53.44;101613.53;5016537;28;20085;-69
2022/05/19 03:40:55;;;;;;;12.00;4.82;;;;;;;12.52;53.94;101611.84;5016355;28;20054;-69
2022/05/19 03:43:22;;;;;;;11.73;4.15;;;;;;;12.53;53.45;101612.69;5016033;28;20457;-69
2022/05/19 03:45:48;;;;;;;12.60;4.35;;;;;;;12.59;53.05;101623.69;5016301;28;20080;-69
2022/05/19 03:48:15;;;;;;;10.82;4.70;;;;;;;12.61;53.15;101624.38;5016589;28;20405;-69
2022/05/19 03:50:46;;;;;;;9.45;4.03;;;;;;;12.61;52.94;101620.84;5016712;28;20453;-69
2022/05/19 03:53:13;;;;;;;7.32;4.57;;;;;;;12.66;53.03;101610.47;5016511;28;20048;-69
2022/05/19 03:55:39;;;;;;;8.90;4.40;;;;;;;12.68;52.75;101610.31;5016624;28;20053;-69
2022/05/19 03:58:06;;;;;;;8.88;3.95;;;;;;;12.66;52.85;101610.47;5016838;28;20068;-69
2022/05/19 04:00:33;;;;;;;12.43;4.80;;;;;;;12.74;52.46;101613.28;5016470;28;20050;-69
2022/05/19 04:03:00;;;;;;;9.05;4.28;;;;;;;12.76;52.24;101611.25;5016406;28;20060;-69
2022/05/19 04:05:27;;;;;;;8.23;4.40;;;;;;;12.78;52.39;101608.44;5017017;28;20393;-69
2022/05/19 04:07:54;;;;;;;6.93;4.03;;;;;;;12.76;52.01;101608.56;5016631;28;20474;-69
2022/05/19 04:10:20;;;;;;;6.38;4.40;;;;;;;12.77;52.22;101610.28;5016745;28;20089;-69
2022/05/19 04:12:47;;;;;;;12.68;4.50;;;;;;;12.83;51.95;101603.41;5016462;28;20054;-69
2022/05/19 04:15:13;;;;;;;8.30;4.25;;;;;;;12.75;51.93;101606.88;5016555;28;20152;-69
2022/05/19 04:17:40;;;;;;;11.25;4.40;;;;;;;12.65;52.48;101608.78;5015888;28;20092;-69
2022/05/19 04:20:09;;;;;;;7.63;3.97;;;;;;;12.72;52.48;101603.63;5015797;28;20128;-69
2022/05/19 04:22:36;;;;;;;12.38;4.22;;;;;;;12.71;52.28;101613.56;5015795;28;20050;-69
2022/05/19 04:25:06;;;;;;;11.60;4.20;;;;;;;12.71;52.39;101605.47;5015958;28;20083;-69
2022/05/19 04:27:33;;;;;;;11.27;3.97;;;;;;;12.67;52.69;101609.47;5018408;28;20057;-69
2022/05/19 04:30:00;;;;;;;8.65;4.15;;;;;;;12.65;52.70;101601.53;5019299;28;20077;-69
2022/05/19 04:32:33;;;;;;;7.55;4.13;;;;;;;12.58;52.49;101603.16;5019119;28;20049;-69
2022/05/19 04:34:59;;;;;;;12.00;4.40;;;;;;;12.71;52.24;101607.31;5019196;28;20115;-69
2022/05/19 04:37:26;;;;;;;10.80;4.28;;;;;;;12.71;52.40;101604.63;5019487;28;20085;-69
2022/05/19 04:39:52;;;;;;;9.48;3.78;;;;;;;12.66;52.68;101605.09;5019011;28;20157;-69
2022/05/19 04:42:19;;;;;;;14.10;4.50;;;;;;;12.68;52.63;101602.25;5017952;28;20054;-69
2022/05/19 04:44:45;;;;;;;10.85;4.75;;;;;;;12.75;51.93;101596.13;5017656;28;20140;-69
2022/05/19 04:47:12;;;;;;;12.70;4.60;;;;;;;12.67;52.59;101601.41;5017202;28;20049;-69
2022/05/19 04:49:38;;;;;;;14.00;4.35;;;;;;;12.72;52.36;101598.25;5017526;28;20149;-68
2022/05/19 04:52:10;;;;;;;18.88;4.47;;;;;;;12.74;51.90;101602.50;5016955;28;20084;-69
2022/05/19 04:54:36;;;;;;;12.98;4.75;;;;;;;12.76;52.20;101603.19;5017067;28;20042;-70
2022/05/19 04:57:04;;;;;;;9.25;4.05;;;;;;;12.81;52.17;101605.44;5017367;28;20124;-69
2022/05/19 04:59:32;;;;;;;13.32;4.70;;;;;;;12.68;52.23;101610.31;5016651;28;20096;-69
2022/05/19 05:01:58;;;;;;;15.15;5.15;;;;;;;12.50;52.29;101604.91;5016766;28;20085;-69
2022/05/19 05:04:26;;;;;;;9.35;4.38;;;;;;;12.50;52.52;101603.06;5017400;28;20112;-69
2022/05/19 05:06:54;;;;;;;14.05;4.45;;;;;;;12.57;52.63;101614.06;5016868;28;20108;-69
2022/05/19 05:09:20;;;;;;;13.07;4.38;;;;;;;12.60;52.44;101605.69;5017152;28;20140;-69
2022/05/19 05:11:46;;;;;;;14.13;5.32;;;;;;;12.60;52.38;101611.09;5016760;28;20050;-69
2022/05/19 05:14:14;;;;;;;7.90;4.70;;;;;;;12.76;52.31;101608.56;5016796;28;20084;-69
2022/05/19 05:16:40;;;;;;;11.52;4.65;;;;;;;12.58;52.54;101613.06;5016702;28;20133;-70
2022/05/19 05:19:06;;;;;;;10.30;4.40;;;;;;;12.73;52.37;101611.56;5016691;28;20467;-69
2022/05/19 05:21:33;;;;;;;11.25;5.20;;;;;;;12.86;51.97;101603.13;5016901;28;20069;-69
2022/05/19 05:24:00;;;;;;;10.27;4.22;;;;;;;12.78;52.37;101611.97;5017515;28;20443;-69
2022/05/19 05:26:26;;;;;;;12.32;4.63;;;;;;;12.77;52.06;101612.97;5016762;28;20089;-68
2022/05/19 05:28:53;;;;;;;8.35;4.32;;;;;;;12.78;51.97;101619.22;5016654;28;20533;-69
2022/05/19 05:31:19;;;;;;;8.50;4.55;;;;;;;12.85;51.75;101607.66;5016134;28;20092;-69
2022/05/19 05:33:46;;;;;;;10.98;3.97;;;;;;;12.98;51.76;101611.84;5016212;28;20139;-69
2022/05/19 05:36:12;;;;;;;12.05;3.90;;;;;;;13.08;51.48;101618.84;5016512;28;20378;-69
2022/05/19 05:38:39;;;;;;;18.50;4.18;;;;;;;13.26;51.43;101623.34;5014977;28;20057;-68
2022/05/19 05:41:05;;;;;;;11.38;4.10;;;;;;;13.47;50.65;101629.25;5016753;28;20133;-68
2022/05/19 05:43:34;;;;;;;12.82;3.85;;;;;;;13.54;50.65;101629.47;5016775;28;20045;-69
2022/05/19 05:46:11;;;;;;;10.77;4.47;;;;;;;13.64;50.46;101632.91;5016769;28;20089;-68
2022/05/19 05:48:37;;;;;;;11.63;4.20;;;;;;;13.68;50.57;101633.44;5016228;28;20209;-69
2022/05/19 05:51:06;;;;;;;9.32;3.97;;;;;;;13.74;50.23;101630.94;5016597;28;20556;-69
2022/05/19 05:53:33;;;;;;;11.57;4.45;;;;;;;13.79;50.24;101625.94;4998252;28;20046;-69
2022/05/19 05:56:00;;;;;;;9.82;4.68;;;;;;;13.93;50.22;101618.28;5016468;28;20058;-69
2022/05/19 05:58:27;;;;;;;10.70;4.20;;;;;;;13.78;50.54;101616.19;5016737;28;20132;-69
2022/05/19 06:00:54;;;;;;;7.85;4.15;;;;;;;13.87;50.36;101618.91;5015901;28;20054;-68
2022/05/19 06:03:20;;;;;;;12.13;4.22;;;;;;;14.11;50.11;101616.34;5016252;28;20081;-69
2022/05/19 06:05:59;;;;;;;9.68;3.95;;;;;;;14.08;49.87;101626.59;4999817;28;20057;-69
2022/05/19 06:08:25;;;;;;;8.43;3.67;;;;;;;14.00;50.23;101624.72;5016567;28;20081;-69
2022/05/19 06:10:52;;;;;;;11.30;3.83;;;;;;;14.19;50.06;101619.09;5015977;28;20081;-69
2022/05/19 06:13:18;;;;;;;15.10;4.65;;;;;;;14.36;49.88;101617.31;5015773;28;20076;-69
2022/05/19 06:15:45;;;;;;;8.40;4.65;;;;;;;14.52;49.55;101614.63;5015932;28;20092;-69
2022/05/19 06:18:12;;;;;;;9.52;3.97;;;;;;;14.67;49.14;101612.16;5015202;28;20498;-69
2022/05/19 06:20:40;;;;;;;7.15;3.70;;;;;;;14.49;49.57;101611.41;5015024;28;20148;-69
2022/05/19 06:23:07;;;;;;;8.07;3.70;;;;;;;14.62;49.49;101619.88;5015109;28;20525;-69
2022/05/19 06:25:37;;;;;;;11.43;5.18;;;;;;;14.73;49.58;101621.47;5015178;28;20092;-69
2022/05/19 06:28:04;;;;;;;11.18;4.57;;;;;;;14.73;48.98;101616.91;5015210;28;20078;-69
2022/05/19 06:30:31;;;;;;;10.88;5.00;;;;;;;14.81;49.41;101616.09;5014874;28;20104;-69
2022/05/19 06:32:58;;;;;;;8.77;4.25;;;;;;;14.85;49.32;101608.50;5015046;28;20513;-69
2022/05/19 06:35:28;;;;;;;10.63;4.70;;;;;;;14.97;49.06;101616.09;5015026;28;20056;-69
2022/05/19 06:37:55;;;;;;;25.13;4.93;;;;;;;15.27;48.41;101612.91;5015623;28;20089;-70
2022/05/19 06:40:24;;;;;;;8.00;4.40;;;;;;;15.15;48.72;101612.38;5014936;28;20449;-69
2022/05/19 06:42:51;;;;;;;31.63;5.72;;;;;;;15.28;48.72;101612.72;5014318;28;20054;-69
2022/05/19 06:45:22;;;;;;;18.95;4.55;;;;;;;15.43;48.40;101615.59;5015517;28;20057;-69
2022/05/19 06:47:50;;;;;;;10.93;4.32;;;;;;;15.37;48.15;101603.63;5014462;28;20193;-69
2022/05/19 06:50:17;;;;;;;7.18;3.88;;;;;;;15.55;48.09;101598.00;5014702;28;20081;-70
2022/05/19 06:52:50;;;;;;;10.48;4.07;;;;;;;15.66;47.75;101602.25;5014807;28;20141;-69
2022/05/19 06:55:17;;;;;;;11.38;4.40;;;;;;;15.96;46.93;101603.34;5014892;28;20409;-70
2022/05/19 06:57:44;;;;;;;8.15;4.07;;;;;;;15.99;46.96;101600.31;5014626;28;20132;-70
2022/05/19 07:00:16;;;;;;;10.18;4.88;;;;;;;16.25;46.43;101597.28;5014849;28;20387;-69
2022/05/19 07:02:48;;;;;;;10.48;4.60;;;;;;;16.73;45.72;101594.53;5014547;28;20073;-69
2022/05/19 07:05:17;;;;;;;11.77;4.72;;;;;;;17.08;45.01;101588.50;5014082;28;20108;-68
2022/05/19 07:07:46;;;;;;;11.63;4.90;;;;;;;17.36;43.89;101590.66;5014634;28;20089;-69
2022/05/19 07:10:15;;;;;;;9.57;4.25;;;;;;;17.52;44.10;101587.78;5014480;28;20552;-67
2022/05/19 07:12:43;;;;;;;14.63;4.20;;;;;;;17.92;43.26;101587.53;5014869;28;20402;-69
2022/05/19 07:15:11;;;;;;;12.55;4.45;;;;;;;17.37;43.77;101589.63;5015510;28;20601;-69
2022/05/19 07:17:39;;;;;;;6.30;3.55;;;;;;;17.88;43.00;101589.78;5015078;28;20427;-69
2022/05/19 07:22:51;;;;;;;11.82;4.00;;;;;;;18.59;41.99;101573.75;5014776;28;20142;-69
2022/05/19 07:25:18;;;;;;;10.10;4.07;;;;;;;18.50;41.50;101562.16;5014585;28;20141;-69
2022/05/19 07:27:45;;;;;;;6.97;3.83;;;;;;;18.60;42.11;101563.72;5015034;28;20093;-69
2022/05/19 07:30:12;;;;;;;11.77;3.80;;;;;;;18.52;41.89;101565.53;5015038;28;20096;-70
2022/05/19 07:32:39;;;;;;;8.45;3.72;;;;;;;18.68;41.72;101569.03;5014734;28;20056;-69
2022/05/19 07:35:09;;;;;;;8.88;3.50;;;;;;;18.94;40.96;101569.34;5015450;28;20042;-69
2022/05/19 07:37:35;;;;;;;7.40;3.67;;;;;;;19.04;40.76;101549.13;5015786;28;20146;-69
2022/05/19 07:40:04;;;;;;;6.05;3.50;;;;;;;19.32;40.36;101555.41;5015113;28;20081;-69
2022/05/19 07:42:31;;;;;;;7.53;3.42;;;;;;;19.58;39.95;101554.75;5016046;28;20083;-68
2022/05/19 07:44:58;;;;;;;9.27;3.20;;;;;;;19.84;39.47;101559.56;5015539;28;20051;-69
2022/05/19 07:47:24;;;;;;;11.10;3.35;;;;;;;20.19;39.02;101545.88;5015425;28;20100;-69
2022/05/19 07:49:54;;;;;;;8.77;3.67;;;;;;;19.94;38.81;101549.13;5014598;28;20442;-69
2022/05/19 07:52:21;;;;;;;5.53;3.03;;;;;;;20.41;38.57;101557.50;5014547;28;20104;-69
2022/05/19 07:54:47;;;;;;;7.70;2.67;;;;;;;20.62;38.36;101556.50;5014715;28;20140;-70
2022/05/19 07:57:14;;;;;;;6.40;3.20;;;;;;;20.56;37.94;101549.13;5015147;28;20264;-69
2022/05/19 07:59:40;;;;;;;6.85;2.65;;;;;;;20.54;38.08;101545.78;5015206;28;20490;-70
2022/05/19 08:02:08;;;;;;;5.78;3.05;;;;;;;20.99;37.46;101548.78;5014684;28;20410;-69
2022/05/19 08:04:34;;;;;;;9.27;3.42;;;;;;;21.16;37.08;101541.88;5015974;28;20054;-69
2022/05/19 08:07:03;;;;;;;10.45;3.10;;;;;;;21.60;35.96;101545.81;5015139;28;20443;-69
2022/05/19 08:12:17;;;;;;;4.47;2.83;;;;;;;21.75;36.13;101540.94;5015875;28;20552;-69
2022/05/19 08:17:30;;;;;;;8.30;2.70;;;;;;;21.92;35.59;101538.59;5014753;28;20051;-69
2022/05/19 08:19:57;;;;;;;8.02;3.10;;;;;;;22.22;35.09;101536.16;5015043;28;20089;-69
2022/05/19 08:22:23;;;;;;;9.75;3.10;;;;;;;22.08;35.07;101542.72;5014141;28;20572;-70
2022/05/19 08:24:50;;;;;;;11.68;3.33;;;;;;;23.03;33.74;101534.59;5014624;28;20069;-69
2022/05/19 08:27:18;;;;;;;11.90;2.63;;;;;;;23.00;32.88;101529.56;5014735;28;20061;-69
2022/05/19 08:29:45;;;;;;;6.05;2.70;;;;;;;22.87;33.15;101526.94;5015210;28;20058;-69
2022/05/19 08:32:12;;;;;;;6.22;2.28;;;;;;;23.21;32.70;101531.91;5014876;28;20130;-69
2022/05/19 08:34:38;;;;;;;8.57;2.63;;;;;;;23.45;32.50;101529.38;5015293;28;20073;-68
2022/05/19 08:37:05;;;;;;;7.38;2.90;;;;;;;23.08;32.65;101534.75;5014659;28;20057;-70
2022/05/19 08:39:32;;;;;;;11.80;3.15;;;;;;;23.17;32.72;101525.22;5014910;28;20074;-69
2022/05/19 08:42:02;;;;;;;6.47;2.70;;;;;;;23.45;32.13;101532.13;5015975;28;20050;-69
2022/05/19 08:44:41;;;;;;;9.90;3.08;;;;;;;23.18;32.86;101526.06;5015296;28;20130;-68
2022/05/19 08:47:11;;;;;;;4.53;2.88;;;;;;;23.38;32.69;101523.13;5014448;28;20399;-69
2022/05/19 08:49:42;;;;;;;8.50;2.90;;;;;;;23.42;32.51;101524.34;5015038;28;20077;-69
2022/05/19 08:52:18;;;;;;;5.60;3.03;;;;;;;23.58;32.53;101515.53;5015071;28;20525;-71
2022/05/19 08:54:46;;;;;;;10.38;3.33;;;;;;;24.55;30.78;101518.31;5013268;28;20142;-70
2022/05/19 08:57:38;;;;;;;6.13;2.67;;;;;;;24.41;31.06;101514.94;5013329;28;20085;-70
2022/05/19 09:00:28;;;;;;;7.93;2.60;;;;;;;24.39;31.21;101521.72;5013367;28;20085;-70
2022/05/19 09:03:27;;;;;;;8.52;2.80;;;;;;;24.63;30.97;101515.22;5013395;28;20128;-71
2022/05/19 09:06:23;;;;;;;6.57;2.85;;;;;;;24.73;30.60;101519.31;5013493;28;20468;-70
2022/05/19 09:09:17;;;;;;;8.85;2.50;;;;;;;25.62;29.48;101514.63;5013396;28;20074;-70
2022/05/19 09:12:00;;;;;;;7.72;2.50;;;;;;;25.14;29.88;101508.28;5013759;28;20447;-70
2022/05/19 09:14:29;;;;;;;9.23;2.20;;;;;;;25.55;29.54;101514.72;5016344;28;20053;-70
2022/05/19 09:17:01;;;;;;;6.82;2.47;;;;;;;25.29;29.76;101513.28;5017350;28;20133;-72
2022/05/19 09:19:39;;;;;;;7.15;2.47;;;;;;;25.90;29.04;101502.84;5017299;28;20448;-69
2022/05/19 09:22:17;;;;;;;6.50;2.95;;;;;;;26.11;29.22;101498.56;5016775;28;20061;-70
2022/05/19 09:24:47;;;;;;;6.68;2.47;;;;;;;26.08;28.92;101499.88;5017342;28;20116;-70
2022/05/19 09:27:16;;;;;;;7.00;2.80;;;;;;;26.23;28.46;101501.28;5016944;28;20149;-71
2022/05/19 09:29:51;;;;;;;9.25;2.47;;;;;;;25.66;29.04;101491.06;5016826;28;20058;-70
2022/05/19 09:32:27;;;;;;;6.93;2.60;;;;;;;25.45;29.80;101481.53;5016992;28;20149;-70
2022/05/19 09:35:07;;;;;;;11.23;3.15;;;;;;;25.81;28.95;101479.53;4999271;28;20045;-70
2022/05/19 09:37:49;;;;;;;8.27;2.72;;;;;;;25.85;29.24;101491.72;5017270;28;20081;-74
2022/05/19 09:40:21;;;;;;;9.02;2.30;;;;;;;26.00;28.57;101485.72;5017815;28;20540;-71
2022/05/19 09:43:19;;;;;;;7.57;3.05;;;;;;;26.32;28.26;101484.13;5017466;28;20462;-74
2022/05/19 09:46:09;;;;;;;7.72;2.55;;;;;;;26.49;28.25;101489.66;5017867;28;20466;-71
2022/05/19 09:48:43;;;;;;;5.78;2.58;;;;;;;26.46;27.66;101484.66;5017333;28;20077;-71
2022/05/19 09:51:14;;;;;;;10.90;2.30;;;;;;;25.80;28.47;101484.22;5017580;28;20521;-71
2022/05/19 09:53:50;;;;;;;7.25;2.58;;;;;;;25.66;28.75;101484.75;5017105;28;20096;-71
2022/05/19 09:56:20;;;;;;;13.07;2.55;;;;;;;25.55;28.91;101489.16;5018116;28;20069;-71
2022/05/19 09:58:50;;;;;;;14.15;2.70;;;;;;;25.98;28.71;101477.69;5018915;28;20073;-70
2022/05/19 10:01:29;;;;;;;6.68;2.30;;;;;;;25.84;28.69;101476.31;5016896;28;20105;-71
2022/05/19 10:04:01;;;;;;;5.57;2.45;;;;;;;26.33;28.45;101476.72;5016872;28;20096;-72
2022/05/19 10:06:49;;;;;;;6.38;2.47;;;;;;;27.43;27.21;101477.13;5016877;28;20064;-71
2022/05/19 10:09:19;;;;;;;8.15;2.25;;;;;;;27.37;26.74;101473.47;5016836;28;20062;-72
2022/05/19 10:12:00;;;;;;;8.20;2.85;;;;;;;27.12;27.18;101465.66;5017050;28;20057;-72
2022/05/19 10:14:30;;;;;;;12.63;2.78;;;;;;;27.22;27.17;101467.72;5017371;28;20426;-73
2022/05/19 10:17:16;;;;;;;9.23;2.58;;;;;;;27.41;26.75;101463.59;5016722;28;20133;-72
2022/05/19 10:20:07;;;;;;;10.63;2.50;;;;;;;27.23;26.87;101455.59;5017220;28;20123;-73
2022/05/19 10:23:01;;;;;;;8.05;2.30;;;;;;;27.31;26.54;101457.06;5017324;28;20117;-72
2022/05/19 10:25:54;;;;;;;5.78;2.30;;;;;;;27.48;27.03;101447.69;5015905;28;20085;-72
2022/05/19 10:31:57;;;;;;;6.30;2.25;;;;;;;27.33;26.53;101454.94;5016623;28;20058;-72
2022/05/19 10:34:38;;;;;;;7.35;2.15;;;;;;;27.06;26.58;101447.38;4986234;28;20472;-71
2022/05/19 10:37:49;;;;;;;5.07;2.08;;;;;;;26.33;27.02;101435.44;5015894;28;20085;-71
2022/05/19 10:40:39;;;;;;;3.95;1.98;;;;;;;25.54;28.07;101441.59;5018962;28;20054;-70
2022/05/19 10:43:22;;;;;;;6.45;2.58;;;;;;;25.79;28.01;101426.72;5015963;28;20149;-71
2022/05/19 10:45:50;;;;;;;5.00;2.35;;;;;;;25.75;27.73;101429.13;5015352;28;20042;-71
2022/05/19 10:48:28;;;;;;;7.65;2.38;;;;;;;25.99;27.75;101413.38;5015501;28;20406;-70
2022/05/19 10:51:00;;;;;;;7.70;2.28;;;;;;;25.79;28.16;101416.59;5015371;28;20101;-72
2022/05/19 10:53:40;;;;;;;5.80;1.75;;;;;;;25.92;27.45;101412.69;5016024;28;20454;-70
2022/05/19 10:56:23;;;;;;;6.90;1.98;;;;;;;25.83;28.19;101419.69;5015421;28;20129;-72
2022/05/19 10:59:01;;;;;;;4.75;2.13;;;;;;;26.06;27.60;101413.22;5015213;28;20407;-70
2022/05/19 11:02:01;;;;;;;8.00;2.63;;;;;;;25.28;28.30;101412.75;5015583;28;20476;-71
2022/05/19 11:05:00;;;;;;;5.63;2.40;;;;;;;25.23;28.64;101403.56;5015725;28;20053;-71
2022/05/19 11:07:47;;;;;;;9.20;2.65;;;;;;;25.20;29.08;101404.06;5016643;28;20054;-71
2022/05/19 11:10:23;;;;;;;7.57;2.08;;;;;;;25.46;28.69;101400.78;5012953;28;20081;-71
2022/05/19 11:13:13;;;;;;;8.75;2.25;;;;;;;25.88;27.84;101391.44;5016069;28;20193;-71
2022/05/19 11:15:46;;;;;;;7.37;2.23;;;;;;;25.71;28.42;101394.16;4998083;28;20073;-71
2022/05/19 11:18:39;;;;;;;6.53;2.22;;;;;;;25.47;28.37;101388.69;5014875;28;20141;-71
2022/05/19 11:21:14;;;;;;;6.53;2.30;;;;;;;25.66;28.43;101380.31;5015192;28;20458;-71
2022/05/19 11:24:21;;;;;;;7.88;2.28;;;;;;;25.61;28.26;101383.78;5015495;28;20081;-70
2022/05/19 11:27:04;;;;;;;9.70;2.55;;;;;;;25.57;28.29;101383.41;5015479;28;20045;-71
2022/05/19 11:29:45;;;;;;;5.10;2.50;;;;;;;25.45;28.60;101379.88;5015736;28;20045;-70
2022/05/19 11:32:23;;;;;;;6.85;2.58;;;;;;;25.37;28.47;101374.75;5015904;28;20136;-71
2022/05/19 11:35:04;;;;;;;6.97;2.55;;;;;;;25.49;28.58;101374.72;5016414;28;20057;-70
2022/05/19 11:37:38;;;;;;;5.20;2.25;;;;;;;25.25;28.49;101380.28;5016788;28;20058;-72
2022/05/19 11:40:32;;;;;;;11.27;2.67;;;;;;;25.24;28.70;101364.91;5014907;28;20054;-72
2022/05/19 11:43:09;;;;;;;7.65;2.45;;;;;;;24.86;29.45;101365.41;5014357;28;20085;-72
2022/05/19 11:45:58;;;;;;;9.02;2.17;;;;;;;24.76;29.50;101356.97;5014485;28;20054;-72
2022/05/19 11:57:17;;;;;;;5.47;2.38;;;;;;;24.95;29.59;101343.91;5017278;28;20556;-69
2022/05/19 11:59:47;;;;;;;9.82;2.72;;;;;;;25.05;29.36;101342.25;5017073;28;20054;-70
2022/05/19 12:02:20;;;;;;;7.78;2.40;;;;;;;25.23;29.43;101346.75;5017815;28;20045;-70
2022/05/19 12:04:49;;;;;;;7.07;2.60;;;;;;;24.79;29.10;101348.25;5017767;28;20061;-70
2022/05/19 12:07:32;;;;;;;7.68;2.88;;;;;;;24.90;29.36;101340.00;5017511;28;20468;-69
2022/05/19 12:09:59;;;;;;;5.53;2.45;;;;;;;24.65;29.44;101337.50;5017046;28;20395;-70